METAR Data
IDs: Format: Raw Decoded Include TAF

Data at: 2348 UTC 24 Apr 2019

PANN 242253Z AUTO 06006KT 10SM FEW050 06/M03 A3009 RMK AO2 SLP198 T00611033 TSNO
PANN 242153Z AUTO VRB05KT 10SM SCT049 06/M05 A3009 RMK AO2 SLP198 T00561050 TSNO
PANN 242053Z AUTO 04004KT 10SM SCT043 06/M05 A3009 RMK AO2 SLP197 T00561050 51008 TSNO
PANN 241953Z AUTO 06004KT 10SM CLR 04/M04 A3008 RMK AO2 SLP196 T00441044 TSNO
PANN 241853Z AUTO 00000KT 10SM CLR 03/M05 A3007 RMK AO2 SLP192 T00281050 TSNO
PANN 241753Z AUTO VRB03KT 10SM CLR 02/M04 A3006 RMK AO2 SLP189 T00171044 10017 21022 51015 TSNO
PANN 241653Z AUTO 00000KT 10SM SCT090 00/M04 A3006 RMK AO2 SLP187 T00001039 TSNO
PANN 241553Z AUTO 00000KT 10SM SCT065 M01/M04 A3004 RMK AO2 SLP182 T10111039 TSNO $
PANN 241453Z AUTO 00000KT 10SM OVC080 M02/M04 A3002 RMK AO2 SLP175 T10171039 51016 TSNO $
PANN 241353Z AUTO 00000KT 10SM BKN080 OVC100 M01/M04 A3000 RMK AO2 SLP169 T10111039 TSNO $
PANN 241253Z AUTO 00000KT 10SM BKN085 OVC100 M01/M03 A2999 RMK AO2 SLP166 T10111033 TSNO $
PANN 241153Z AUTO 30003KT 10SM BKN070 OVC080 M01/M03 A2997 RMK AO2 SLP158 60000 T10061028 10017 21011 51018 TSNO $
PANN 241053Z AUTO 00000KT 10SM SCT050 OVC100 M01/M02 A2996 RMK AO2 SLP155 T10111022 TSNO $
PANN 240953Z AUTO 00000KT 10SM SCT060 OVC070 M01/M02 A2994 RMK AO2 SNE0858 SLP147 P0000 T10061022 TSNO $
PANN 240853Z AUTO 00000KT 5SM -SN BR OVC055 00/M02 A2992 RMK AO2 SNB10E26B50 SLP141 P0000 60000 T00001017 400281011 53021 TSNO $
PANN 240753Z AUTO 31005KT 10SM SCT035 BKN050 OVC075 01/M03 A2990 RMK AO2 SLP134 T00061028 TSNO $
PANN 240653Z AUTO VRB03KT 10SM BKN048 BKN070 OVC090 01/M04 A2987 RMK AO2 SLP124 T00111044 TSNO $
PANN 240553Z AUTO 22004KT 10SM OVC031 02/M04 A2986 RMK AO2 SLP120 T00171044 10028 20017 53014 TSNO $
PANN 240453Z AUTO 00000KT 10SM OVC038 02/M04 A2984 RMK AO2 SLP114 T00221039 TSNO
PANN 240353Z AUTO 28005KT 10SM OVC085 02/M04 A2982 RMK AO2 SLP108 T00221044 TSNO
PANN 240253Z AUTO VRB05KT 10SM OVC070 02/M05 A2982 RMK AO2 SLP106 T00221050 53016 TSNO
PANN 240153Z AUTO VRB04KT 10SM BKN049 OVC070 02/M04 A2980 RMK AO2 SLP101 T00221044 TSNO
PANN 240053Z AUTO 23008KT 10SM OVC070 02/M05 A2978 RMK AO2 SLP093 T00221050 TSNO
PANN 232353Z AUTO 24012G18KT 10SM OVC070 02/M05 A2977 RMK AO2 SLP088 T00221050 10028 21006 52017 TSNO
PANN 232253Z AUTO VRB06KT 10SM FEW027 FEW049 OVC075 02/M04 A2975 RMK AO2 SLP082 T00221044 TSNO
PANN 232153Z AUTO 25007G17KT 230V310 10SM OVC070 01/M05 A2974 RMK AO2 SLP079 T00111050 TSNO
PANN 232053Z AUTO 24010G16KT 210V270 10SM BKN060 OVC070 01/M05 A2972 RMK AO2 SLP073 T00061050 53018 TSNO
PANN 231953Z AUTO 25006G18KT 10SM FEW055 OVC070 00/M05 A2970 RMK AO2 SLP065 T00001050 TSNO
PANN 231853Z AUTO 25008G19KT 220V280 10SM FEW037 OVC090 M01/M06 A2968 RMK AO2 SLP059 T10061056 TSNO
PANN 231753Z AUTO 25011G20KT 10SM FEW037 OVC085 M01/M05 A2966 RMK AO2 SLP054 T10061050 11006 21011 51020 TSNO
PANN 231653Z AUTO VRB06G19KT 10SM OVC090 M01/M05 A2965 RMK AO2 SLP048 T10111050 TSNO
PANN 231553Z AUTO 24008G18KT 210V280 10SM OVC085 M01/M05 A2962 RMK AO2 SLP039 T10111050 TSNO $
PANN 231453Z AUTO 24011G16KT 10SM OVC075 M01/M04 A2960 RMK AO2 SLP032 T10111044 51030 TSNO $
PANN 231353Z AUTO VRB06KT 10SM OVC070 M01/M04 A2958 RMK AO2 SLP025 T10111039 TSNO $
PANN 231253Z AUTO 24007G15KT 10SM OVC065 M01/M03 A2955 RMK AO2 SLP013 T10061033 TSNO $
PANN 231153Z AUTO VRB06KT 10SM OVC070 00/M03 A2951 RMK AO2 SLP001 60005 70005 T00001028 10017 20000 51031 TSNO $